createdAt,value
2017-09-11T00:01:36.062Z,13.20
2017-09-11T00:04:04.269Z,13.10
2017-09-11T00:06:30.367Z,13.20
2017-09-11T00:08:56.674Z,13.20
2017-09-11T00:11:23.352Z,13.10
2017-09-11T00:13:49.533Z,13.10
2017-09-11T00:16:15.850Z,13.00
2017-09-11T00:18:42.056Z,13.10
2017-09-11T00:21:08.353Z,13.00
2017-09-11T00:23:34.517Z,13.00
2017-09-11T00:26:00.668Z,13.00
2017-09-11T00:28:28.566Z,12.90
2017-09-11T00:30:54.769Z,12.80
2017-09-11T00:33:21.033Z,12.80
2017-09-11T00:35:47.325Z,12.80
2017-09-11T00:38:13.494Z,12.70
2017-09-11T00:40:39.647Z,12.70
2017-09-11T00:43:05.770Z,12.60
2017-09-11T00:45:32.006Z,12.60
2017-09-11T00:47:58.164Z,12.60
2017-09-11T00:50:24.447Z,12.60
2017-09-11T00:52:50.738Z,12.60
2017-09-11T00:55:17.639Z,12.50
2017-09-11T00:57:43.834Z,12.40
2017-09-11T01:00:10.004Z,12.50
2017-09-11T01:02:36.125Z,12.50
2017-09-11T01:05:02.418Z,12.50
2017-09-11T01:07:28.590Z,12.40
2017-09-11T01:09:54.757Z,12.30
2017-09-11T01:12:20.933Z,12.40
2017-09-11T01:14:47.106Z,12.40
2017-09-11T01:17:13.365Z,12.30
2017-09-11T01:19:39.468Z,12.30
2017-09-11T01:22:05.625Z,12.30
2017-09-11T01:24:31.814Z,12.30
2017-09-11T01:26:58.064Z,12.30
2017-09-11T01:29:24.917Z,12.30
2017-09-11T01:31:51.277Z,12.20
2017-09-11T01:34:17.525Z,12.20
2017-09-11T01:36:43.669Z,12.20
2017-09-11T01:39:09.832Z,12.20
2017-09-11T01:41:36.966Z,12.10
2017-09-11T01:44:04.516Z,12.10
2017-09-11T01:46:30.975Z,12.10
2017-09-11T01:48:57.225Z,12.10
2017-09-11T01:51:23.574Z,12.00
2017-09-11T01:53:49.743Z,12.00
2017-09-11T01:56:15.895Z,12.00
2017-09-11T01:58:42.073Z,12.00
2017-09-11T02:01:08.328Z,12.00
2017-09-11T02:03:34.993Z,11.90
2017-09-11T02:06:01.187Z,11.90
2017-09-11T02:08:27.362Z,12.00
2017-09-11T02:10:53.564Z,11.90
2017-09-11T02:13:19.840Z,11.90
2017-09-11T02:15:46.123Z,11.80
2017-09-11T02:18:12.349Z,11.80
2017-09-11T02:20:38.618Z,11.80
2017-09-11T02:23:05.138Z,11.90
2017-09-11T02:25:31.266Z,11.80
2017-09-11T02:27:57.748Z,11.80
2017-09-11T02:30:23.986Z,11.70
2017-09-11T02:32:51.341Z,11.70
2017-09-11T02:35:17.549Z,11.70
2017-09-11T02:37:43.840Z,11.70
2017-09-11T02:40:10.226Z,11.70
2017-09-11T02:42:36.370Z,11.70
2017-09-11T02:45:02.514Z,11.70
2017-09-11T02:47:28.637Z,11.60
2017-09-11T02:49:54.779Z,11.60
2017-09-11T02:52:21.949Z,11.60
2017-09-11T02:54:48.189Z,11.60
2017-09-11T02:57:14.317Z,11.60
2017-09-11T02:59:40.489Z,11.60
2017-09-11T03:02:07.069Z,11.60
2017-09-11T03:04:33.249Z,11.60
2017-09-11T03:06:59.413Z,11.60
2017-09-11T03:09:25.721Z,11.60
2017-09-11T03:11:52.058Z,11.60
2017-09-11T03:14:18.317Z,11.70
2017-09-11T03:16:44.557Z,11.70
2017-09-11T03:19:10.726Z,11.60
2017-09-11T03:21:36.929Z,11.60
2017-09-11T03:24:03.111Z,11.60
2017-09-11T03:26:30.265Z,11.70
2017-09-11T03:28:56.942Z,11.70
2017-09-11T03:31:23.513Z,11.70
2017-09-11T03:33:49.742Z,11.80
2017-09-11T03:36:15.967Z,11.70
2017-09-11T03:38:42.072Z,11.70
2017-09-11T03:41:08.211Z,11.70
2017-09-11T03:43:34.748Z,11.70
2017-09-11T03:46:01.137Z,11.80
2017-09-11T03:48:27.316Z,11.80
2017-09-11T03:50:53.552Z,11.80
2017-09-11T03:53:19.722Z,11.90
2017-09-11T03:55:45.960Z,11.90
2017-09-11T03:58:12.217Z,11.90
2017-09-11T04:00:38.583Z,11.80
2017-09-11T04:03:04.957Z,12.00
2017-09-11T04:05:31.135Z,11.90
2017-09-11T04:07:58.437Z,11.90
2017-09-11T04:10:24.758Z,11.90
2017-09-11T04:12:51.397Z,11.90
2017-09-11T04:15:17.746Z,11.90
2017-09-11T04:17:43.897Z,11.90
2017-09-11T04:20:10.150Z,11.90
2017-09-11T04:22:36.464Z,11.90
2017-09-11T04:25:02.664Z,11.90
2017-09-11T04:27:28.911Z,11.90
2017-09-11T04:29:55.704Z,11.80
2017-09-11T04:32:21.994Z,11.80
2017-09-11T04:34:48.214Z,11.90
2017-09-11T04:37:14.502Z,11.90
2017-09-11T04:39:40.752Z,11.90
2017-09-11T04:42:08.385Z,11.90
2017-09-11T04:44:34.699Z,12.00
2017-09-11T04:47:01.005Z,12.10
2017-09-11T04:49:27.161Z,12.00
2017-09-11T04:51:53.392Z,12.00
2017-09-11T04:54:19.615Z,12.00
2017-09-11T04:56:46.012Z,12.10
2017-09-11T04:59:12.437Z,12.10
2017-09-11T05:01:38.672Z,12.10
2017-09-11T05:04:05.366Z,12.10
2017-09-11T05:06:32.153Z,12.10
2017-09-11T05:08:58.281Z,12.20
2017-09-11T05:11:24.440Z,12.30
2017-09-11T05:13:50.589Z,12.30
2017-09-11T05:16:17.556Z,12.40
2017-09-11T05:18:43.812Z,12.30
2017-09-11T05:21:10.088Z,12.50
2017-09-11T05:23:37.401Z,12.50
2017-09-11T05:26:04.014Z,12.50
2017-09-11T05:28:30.255Z,12.60
2017-09-11T05:30:56.418Z,12.60
2017-09-11T05:33:22.804Z,12.70
2017-09-11T05:35:49.073Z,12.80
2017-09-11T05:38:15.257Z,12.80
2017-09-11T05:40:41.535Z,12.80
2017-09-11T05:43:07.791Z,12.90
2017-09-11T05:45:33.896Z,13.00
2017-09-11T05:48:00.022Z,13.20
2017-09-11T05:50:26.310Z,13.20
2017-09-11T05:52:52.470Z,13.40
2017-09-11T05:55:18.654Z,13.50
2017-09-11T05:57:44.773Z,13.80
2017-09-11T06:00:11.001Z,13.90
2017-09-11T06:02:37.314Z,14.20
2017-09-11T06:05:03.464Z,14.50
2017-09-11T06:07:30.642Z,15.00
2017-09-11T06:09:56.888Z,15.40
2017-09-11T06:12:23.128Z,16.00
2017-09-11T06:14:49.243Z,16.90
2017-09-11T06:17:15.403Z,17.20
2017-09-11T06:19:43.245Z,17.60
2017-09-11T06:22:09.527Z,18.00
2017-09-11T06:24:37.017Z,18.60
2017-09-11T06:27:03.142Z,19.00
2017-09-11T06:29:29.309Z,18.80
2017-09-11T06:31:55.576Z,19.30
2017-09-11T06:34:21.828Z,19.10
2017-09-11T06:36:47.971Z,18.90
2017-09-11T06:41:46.964Z,18.60
2017-09-11T06:44:13.275Z,18.30
2017-09-11T06:46:39.521Z,19.40
2017-09-11T06:49:05.844Z,19.60
2017-09-11T06:51:32.072Z,20.40
2017-09-11T06:53:58.333Z,20.70
2017-09-11T06:56:24.566Z,20.80
2017-09-11T06:58:50.810Z,21.90
2017-09-11T07:01:17.776Z,21.10
2017-09-11T07:03:43.910Z,20.70
2017-09-11T07:06:10.016Z,21.20
2017-09-11T07:08:36.202Z,21.40
2017-09-11T07:11:02.409Z,21.80
2017-09-11T07:13:39.636Z,20.90
2017-09-11T07:16:05.767Z,21.10
2017-09-11T07:18:31.984Z,21.10
2017-09-11T07:20:58.244Z,21.40
2017-09-11T07:23:24.343Z,21.50
2017-09-11T07:25:50.532Z,22.20
2017-09-11T07:28:16.671Z,21.10
2017-09-11T07:30:42.834Z,20.40
2017-09-11T07:33:09.050Z,19.30
2017-09-11T07:35:35.200Z,19.00
2017-09-11T07:38:01.400Z,19.30
2017-09-11T07:40:27.553Z,19.80
2017-09-11T07:42:53.740Z,20.40
2017-09-11T07:45:19.921Z,20.80
2017-09-11T07:47:46.060Z,20.90
2017-09-11T07:50:12.230Z,20.20
2017-09-11T07:52:38.925Z,19.40
2017-09-11T07:55:05.588Z,19.90
2017-09-11T07:57:31.732Z,19.30
2017-09-11T07:59:57.959Z,20.20
2017-09-11T08:02:24.130Z,19.30
2017-09-11T08:04:50.296Z,19.60
2017-09-11T08:07:16.489Z,19.60
2017-09-11T08:09:42.728Z,20.00
2017-09-11T08:12:08.941Z,20.10
2017-09-11T08:14:35.118Z,19.80
2017-09-11T08:17:01.370Z,20.00
2017-09-11T08:19:27.516Z,19.60
2017-09-11T08:21:53.675Z,19.20
2017-09-11T08:24:19.796Z,19.80
2017-09-11T08:26:46.048Z,20.60
2017-09-11T08:29:12.263Z,20.50
2017-09-11T08:31:38.468Z,20.60
2017-09-11T08:34:04.598Z,20.40
2017-09-11T08:36:31.564Z,20.00
2017-09-11T08:38:57.812Z,19.90
2017-09-11T08:41:24.004Z,19.80
2017-09-11T08:43:50.133Z,20.10
2017-09-11T08:46:16.237Z,20.50
2017-09-11T08:48:42.418Z,20.00
2017-09-11T08:51:08.716Z,20.10
2017-09-11T08:53:34.919Z,20.50
2017-09-11T08:56:01.129Z,20.40
2017-09-11T08:58:27.330Z,20.00
2017-09-11T09:00:53.538Z,20.00
2017-09-11T09:03:19.834Z,19.40
2017-09-11T09:05:45.964Z,19.60
2017-09-11T09:08:12.136Z,19.90
2017-09-11T09:10:38.359Z,19.80
2017-09-11T09:13:04.596Z,19.70
2017-09-11T09:15:30.820Z,20.00
2017-09-11T09:17:57.033Z,19.90
2017-09-11T09:20:23.329Z,19.50
2017-09-11T09:22:49.449Z,19.50
2017-09-11T09:25:15.692Z,19.70
2017-09-11T09:27:41.810Z,19.70
2017-09-11T09:30:08.073Z,19.80
2017-09-11T09:32:34.242Z,20.00
2017-09-11T09:35:00.447Z,20.30
2017-09-11T09:37:26.671Z,19.90
2017-09-11T09:39:56.121Z,19.80
2017-09-11T09:42:23.281Z,20.40
2017-09-11T09:44:49.608Z,20.10
2017-09-11T09:47:16.507Z,20.70
2017-09-11T09:49:42.722Z,20.80
2017-09-11T09:52:08.951Z,20.30
2017-09-11T09:54:36.063Z,20.20
2017-09-11T09:57:02.316Z,20.20
2017-09-11T09:59:28.618Z,20.50
2017-09-11T10:01:54.866Z,21.40
2017-09-11T10:04:21.133Z,22.10
2017-09-11T10:06:47.359Z,22.90
2017-09-11T10:09:13.754Z,22.60
2017-09-11T10:11:40.771Z,23.00
2017-09-11T10:14:07.076Z,23.00
2017-09-11T10:16:33.316Z,23.70
2017-09-11T10:18:59.551Z,23.60
2017-09-11T10:21:26.832Z,24.60
2017-09-11T10:23:52.972Z,23.40
2017-09-11T10:26:19.084Z,24.10
2017-09-11T10:28:45.310Z,24.50
2017-09-11T10:31:12.244Z,24.80
2017-09-11T10:33:38.550Z,24.80
2017-09-11T10:36:04.755Z,24.60
2017-09-11T10:38:31.008Z,24.60
2017-09-11T10:40:57.962Z,26.10
2017-09-11T10:43:24.234Z,26.10
2017-09-11T10:45:51.496Z,24.80
2017-09-11T10:48:17.736Z,24.80
2017-09-11T10:50:43.896Z,24.60
2017-09-11T10:53:10.031Z,24.60
2017-09-11T10:55:36.227Z,24.10
2017-09-11T10:58:02.514Z,24.20
2017-09-11T11:00:32.298Z,24.10
2017-09-11T11:02:59.346Z,24.00
2017-09-11T11:05:25.589Z,23.30
2017-09-11T11:07:51.914Z,23.10
2017-09-11T11:10:18.133Z,23.90
2017-09-11T11:12:44.559Z,23.80
2017-09-11T11:15:11.029Z,23.60
2017-09-11T11:17:37.325Z,24.10
2017-09-11T11:20:03.574Z,23.90
2017-09-11T11:22:29.870Z,23.50
2017-09-11T11:24:56.060Z,22.90
2017-09-11T11:27:23.097Z,23.10
2017-09-11T11:29:49.303Z,22.40
2017-09-11T11:32:15.572Z,22.50
2017-09-11T11:34:41.791Z,22.20
2017-09-11T11:37:08.165Z,22.30
2017-09-11T11:39:34.495Z,22.50
2017-09-11T11:42:00.756Z,22.40
2017-09-11T11:44:27.034Z,21.90
2017-09-11T11:46:53.471Z,22.10
2017-09-11T11:49:19.763Z,22.20
2017-09-11T11:51:46.060Z,22.00
2017-09-11T11:54:12.377Z,21.90
2017-09-11T11:56:38.554Z,22.10
2017-09-11T11:59:04.893Z,21.70
2017-09-11T12:01:31.127Z,21.70
2017-09-11T12:03:57.373Z,21.70
2017-09-11T12:06:23.662Z,21.40
2017-09-11T12:08:50.012Z,21.70
2017-09-11T12:11:16.182Z,21.60
2017-09-11T12:13:42.469Z,21.40
2017-09-11T12:16:08.677Z,21.40
2017-09-11T12:18:35.215Z,21.00
2017-09-11T12:21:02.462Z,21.10
2017-09-11T12:23:29.035Z,20.70
2017-09-11T12:25:55.275Z,21.00
2017-09-11T12:28:21.924Z,21.10
2017-09-11T12:30:48.179Z,21.00
2017-09-11T12:33:15.245Z,20.60
2017-09-11T12:35:41.494Z,20.70
2017-09-11T12:38:10.528Z,20.60
2017-09-11T12:40:36.873Z,20.60
2017-09-11T12:43:03.291Z,20.60
2017-09-11T12:45:29.502Z,20.40
2017-09-11T12:47:56.065Z,20.60
2017-09-11T12:50:22.356Z,20.50
2017-09-11T12:52:48.525Z,20.30
2017-09-11T12:55:14.778Z,20.30
2017-09-11T12:57:41.009Z,20.40
2017-09-11T13:00:07.212Z,20.40
2017-09-11T13:02:33.744Z,20.40
2017-09-11T13:05:00.076Z,20.40
2017-09-11T13:07:26.575Z,20.10
2017-09-11T13:09:52.740Z,20.00
2017-09-11T13:12:20.382Z,20.10
2017-09-11T13:14:46.565Z,20.30
2017-09-11T13:17:12.910Z,20.30
2017-09-11T13:19:39.255Z,20.10
2017-09-11T13:22:05.697Z,20.30
2017-09-11T13:24:31.872Z,20.50
2017-09-11T13:26:58.183Z,20.60
2017-09-11T13:29:24.442Z,21.00
2017-09-11T13:31:51.355Z,21.10
2017-09-11T13:34:24.913Z,21.00
2017-09-11T13:36:51.120Z,21.00
2017-09-11T13:39:17.630Z,20.90
2017-09-11T13:41:45.112Z,21.40
2017-09-11T13:44:11.230Z,21.10
2017-09-11T13:46:37.401Z,21.30
2017-09-11T13:49:03.618Z,21.60
2017-09-11T13:51:29.944Z,21.80
2017-09-11T13:56:38.386Z,21.90
2017-09-11T13:59:05.140Z,22.70
2017-09-11T14:01:31.500Z,23.60
2017-09-11T14:03:57.652Z,22.70
2017-09-11T14:06:23.791Z,21.70
2017-09-11T14:08:51.663Z,21.70
2017-09-11T14:11:17.877Z,22.10
2017-09-11T14:13:44.072Z,22.30
2017-09-11T14:16:10.338Z,21.70
2017-09-11T14:18:36.588Z,21.40
2017-09-11T14:21:02.782Z,21.00
2017-09-11T14:23:28.921Z,21.00
2017-09-11T14:25:55.557Z,21.00
2017-09-11T14:28:22.575Z,20.50
2017-09-11T14:30:48.903Z,20.60
2017-09-11T14:33:15.323Z,20.80
2017-09-11T14:35:41.532Z,21.10
2017-09-11T14:38:08.796Z,21.20
2017-09-11T14:40:36.838Z,21.20
2017-09-11T14:43:12.314Z,20.90
2017-09-11T14:45:42.895Z,20.90
2017-09-11T14:48:10.595Z,20.60
2017-09-11T14:50:37.040Z,20.50
2017-09-11T14:53:04.328Z,20.60
2017-09-11T14:55:36.106Z,20.30
2017-09-11T14:58:06.959Z,20.50
2017-09-11T15:00:39.692Z,20.50
2017-09-11T15:03:09.528Z,20.20
2017-09-11T15:05:39.112Z,20.30
2017-09-11T15:08:09.792Z,20.10
2017-09-11T15:10:35.934Z,20.00
2017-09-11T15:13:02.108Z,19.80
2017-09-11T15:15:28.336Z,19.80
2017-09-11T15:17:55.529Z,19.80
2017-09-11T15:20:21.783Z,19.60
2017-09-11T15:22:47.963Z,19.60
2017-09-11T15:25:14.877Z,19.70
2017-09-11T15:27:44.044Z,19.60
2017-09-11T15:30:14.233Z,19.40
2017-09-11T15:32:42.988Z,19.20
2017-09-11T15:35:12.327Z,19.20
2017-09-11T15:37:42.904Z,19.30
2017-09-11T15:40:31.102Z,19.20
2017-09-11T15:42:58.933Z,19.00
2017-09-11T15:45:28.975Z,19.10
2017-09-11T15:47:55.264Z,19.30
2017-09-11T15:50:21.586Z,19.10
2017-09-11T15:52:47.880Z,19.10
2017-09-11T15:55:34.116Z,19.10
2017-09-11T15:58:02.077Z,19.20
2017-09-11T16:00:29.679Z,19.20
2017-09-11T16:02:55.958Z,19.10
2017-09-11T16:05:22.195Z,19.00
2017-09-11T16:07:48.654Z,19.10
2017-09-11T16:10:18.474Z,19.10
2017-09-11T16:12:45.248Z,19.10
2017-09-11T16:15:11.520Z,18.90
2017-09-11T16:17:37.792Z,19.00
2017-09-11T16:20:18.557Z,18.90
2017-09-11T16:23:07.832Z,18.90
2017-09-11T16:25:34.556Z,18.90
2017-09-11T16:28:07.030Z,18.90
2017-09-11T16:30:36.015Z,18.90
2017-09-11T16:33:07.706Z,18.80
2017-09-11T16:35:42.959Z,18.70
2017-09-11T16:38:09.597Z,18.70
2017-09-11T16:40:36.416Z,18.70
2017-09-11T16:43:02.922Z,18.70
2017-09-11T16:45:29.500Z,18.70
2017-09-11T16:47:56.069Z,18.50
2017-09-11T16:50:23.481Z,18.30
2017-09-11T16:52:49.773Z,18.30
2017-09-11T16:55:17.603Z,18.10
2017-09-11T16:57:43.897Z,18.10
2017-09-11T17:00:10.147Z,18.00
2017-09-11T17:02:36.287Z,17.90
2017-09-11T17:05:02.496Z,17.80
2017-09-11T17:07:28.628Z,17.70
2017-09-11T17:09:54.780Z,17.70
2017-09-11T17:12:21.024Z,17.60
2017-09-11T17:14:47.239Z,17.60
2017-09-11T17:17:13.380Z,17.60
2017-09-11T17:19:39.597Z,17.60
2017-09-11T17:22:06.126Z,17.50
2017-09-11T17:24:32.286Z,17.40
2017-09-11T17:26:58.464Z,17.30
2017-09-11T17:29:24.716Z,17.30
2017-09-11T17:31:50.942Z,17.30
2017-09-11T17:34:17.082Z,17.30
2017-09-11T17:36:43.176Z,17.30
2017-09-11T17:39:09.365Z,17.30
2017-09-11T17:41:35.491Z,17.30
2017-09-11T17:44:01.694Z,17.30
2017-09-11T17:46:27.875Z,17.40
2017-09-11T17:48:54.071Z,17.30
2017-09-11T17:51:20.240Z,17.30
2017-09-11T17:53:46.369Z,17.30
2017-09-11T17:56:12.576Z,17.30
2017-09-11T17:58:38.812Z,17.20
2017-09-11T18:01:06.312Z,17.20
2017-09-11T18:03:32.440Z,17.20
2017-09-11T18:05:59.324Z,17.20
2017-09-11T18:08:26.263Z,17.10
2017-09-11T18:10:53.001Z,17.10
2017-09-11T18:13:19.503Z,17.10
2017-09-11T18:15:45.663Z,17.10
2017-09-11T18:18:12.100Z,17.00
2017-09-11T18:20:38.349Z,17.00
2017-09-11T18:23:04.851Z,16.90
2017-09-11T18:25:31.162Z,16.90
2017-09-11T18:27:57.413Z,16.90
2017-09-11T18:30:24.417Z,16.80
2017-09-11T18:32:50.641Z,16.80
2017-09-11T18:35:16.763Z,16.70
2017-09-11T18:37:44.463Z,16.60
2017-09-11T18:40:10.824Z,16.60
2017-09-11T18:42:38.259Z,16.60
2017-09-11T18:45:07.277Z,16.60
2017-09-11T18:47:34.243Z,16.60
2017-09-11T18:50:02.842Z,16.70
2017-09-11T18:52:28.988Z,16.60
2017-09-11T18:55:27.899Z,16.60
2017-09-11T18:57:54.991Z,16.60
2017-09-11T19:00:21.154Z,16.60
2017-09-11T19:02:48.849Z,16.60
2017-09-11T19:05:15.285Z,16.50
2017-09-11T19:07:42.343Z,16.50
2017-09-11T19:10:09.381Z,16.50
2017-09-11T19:12:37.939Z,16.50
2017-09-11T19:15:04.654Z,16.40
2017-09-11T19:17:31.655Z,16.60
2017-09-11T19:19:58.636Z,16.50
2017-09-11T19:22:24.868Z,16.60
2017-09-11T19:24:52.190Z,16.60
2017-09-11T19:27:18.389Z,16.60
2017-09-11T19:29:47.462Z,16.70
2017-09-11T19:32:14.264Z,16.70
2017-09-11T19:34:43.164Z,16.70
2017-09-11T19:37:09.414Z,16.70
2017-09-11T19:39:39.415Z,16.50
2017-09-11T19:42:06.848Z,16.40
2017-09-11T19:44:33.864Z,16.30
2017-09-11T19:47:00.119Z,16.30
2017-09-11T19:49:27.349Z,16.10
2017-09-11T19:51:56.296Z,16.10
2017-09-11T19:54:22.471Z,16.10
2017-09-11T19:56:50.596Z,15.90
2017-09-11T19:59:16.788Z,15.90
2017-09-11T20:01:43.017Z,15.80
2017-09-11T20:04:09.996Z,15.80
2017-09-11T20:06:44.712Z,15.70
2017-09-11T20:09:11.710Z,15.70
2017-09-11T20:11:38.669Z,15.50
2017-09-11T20:14:05.750Z,15.50
2017-09-11T20:16:32.261Z,15.50
2017-09-11T20:18:58.536Z,15.40
2017-09-11T20:21:25.468Z,15.20
2017-09-11T20:23:52.437Z,15.10
2017-09-11T20:26:19.414Z,15.00
2017-09-11T20:28:45.660Z,15.00
2017-09-11T20:31:12.597Z,15.00
2017-09-11T20:33:39.540Z,15.00
2017-09-11T20:36:05.664Z,14.90
2017-09-11T20:38:32.550Z,14.80
2017-09-11T20:40:58.741Z,14.80
2017-09-11T20:43:25.616Z,14.80
2017-09-11T20:45:52.605Z,14.70
2017-09-11T20:48:19.038Z,14.70
2017-09-11T20:50:45.287Z,14.70
2017-09-11T20:53:12.605Z,14.50
2017-09-11T20:55:38.830Z,14.50
2017-09-11T20:58:05.812Z,14.60
2017-09-11T21:00:32.704Z,14.60
2017-09-11T21:02:59.709Z,14.50
2017-09-11T21:05:26.826Z,14.40
2017-09-11T21:07:53.098Z,14.40
2017-09-11T21:10:20.012Z,14.40
2017-09-11T21:12:46.966Z,14.40
2017-09-11T21:15:13.949Z,14.30
2017-09-11T21:17:40.227Z,14.30
2017-09-11T21:20:06.820Z,14.30
2017-09-11T21:22:33.156Z,14.20
2017-09-11T21:25:03.209Z,14.20
2017-09-11T21:27:29.532Z,14.30
2017-09-11T21:29:56.756Z,14.20
2017-09-11T21:32:23.587Z,14.20
2017-09-11T21:34:51.797Z,14.20
2017-09-11T21:37:19.028Z,14.10
2017-09-11T21:39:45.694Z,14.10
2017-09-11T21:42:12.155Z,14.00
2017-09-11T21:44:38.408Z,14.00
2017-09-11T21:47:05.843Z,13.90
2017-09-11T21:49:32.172Z,13.90
2017-09-11T21:51:59.363Z,13.90
2017-09-11T21:54:25.924Z,13.80
2017-09-11T21:56:52.269Z,13.80
2017-09-11T21:59:19.400Z,13.70
2017-09-11T22:01:45.541Z,13.60
2017-09-11T22:04:11.784Z,13.70
2017-09-11T22:06:38.797Z,13.70
2017-09-11T22:09:05.247Z,13.70
2017-09-11T22:11:32.097Z,13.70
2017-09-11T22:13:59.173Z,13.70
2017-09-11T22:16:26.149Z,13.60
2017-09-11T22:18:53.102Z,13.60
2017-09-11T22:21:30.531Z,13.50
2017-09-11T22:24:00.313Z,13.60
2017-09-11T22:26:29.148Z,13.60
2017-09-11T22:28:57.434Z,13.50
2017-09-11T22:31:25.087Z,13.60
2017-09-11T22:33:56.234Z,13.50
2017-09-11T22:36:22.914Z,13.60
2017-09-11T22:38:52.143Z,13.50
2017-09-11T22:41:21.500Z,13.40
2017-09-11T22:43:48.862Z,13.40
2017-09-11T22:46:17.013Z,13.50
2017-09-11T22:48:43.852Z,13.60
2017-09-11T22:51:13.308Z,13.50
2017-09-11T22:53:41.442Z,13.50
2017-09-11T22:56:08.080Z,13.50
2017-09-11T22:58:35.193Z,13.50
2017-09-11T23:01:02.142Z,13.50
2017-09-11T23:03:28.345Z,13.40
2017-09-11T23:05:54.553Z,13.40
2017-09-11T23:08:21.564Z,13.40
2017-09-11T23:10:48.552Z,13.40
2017-09-11T23:13:15.424Z,13.40
2017-09-11T23:15:41.638Z,13.40
2017-09-11T23:18:08.552Z,13.30
2017-09-11T23:20:34.760Z,13.30
2017-09-11T23:23:01.615Z,13.20
2017-09-11T23:25:28.518Z,13.30
2017-09-11T23:27:54.654Z,13.20
2017-09-11T23:30:20.816Z,13.30
2017-09-11T23:32:47.775Z,13.40
2017-09-11T23:35:14.694Z,13.50
2017-09-11T23:37:40.916Z,13.40
2017-09-11T23:40:07.912Z,13.30
2017-09-11T23:42:34.089Z,13.30
2017-09-11T23:45:01.031Z,13.30
2017-09-11T23:47:27.943Z,13.30
2017-09-11T23:49:54.122Z,13.30
2017-09-11T23:52:21.092Z,13.30
2017-09-11T23:54:47.344Z,13.20
2017-09-11T23:57:14.204Z,13.30
2017-09-11T23:59:40.450Z,13.20
